Time;durP1;ratioP1;P1;durP2;ratioP2;P2;SDS_P1;SDS_P2;PMS_P1;PMS_P2;Temp;Humidity;BMP_temperature;BMP_pressure;BME280_temperature;BME280_humidity;BME280_pressure;Samples;Min_cycle;Max_cycle;Signal;HPM_P1;HPM_P2
2022/01/06 00:00:35;;;;;;;1.07;0.97;;;3.00;99.90;;;;;;7390929;19;20309;-79
2022/01/06 00:03:04;;;;;;;1.10;1.00;;;3.00;99.90;;;;;;7393247;19;20305;-78
2022/01/06 00:05:30;;;;;;;0.85;0.85;;;3.00;99.90;;;;;;7390503;19;20357;-78
2022/01/06 00:07:57;;;;;;;0.85;0.85;;;3.20;99.90;;;;;;7344970;19;20307;-79
2022/01/06 00:10:25;;;;;;;1.20;1.10;;;3.00;99.90;;;;;;7385276;19;20321;-78
2022/01/06 00:15:33;;;;;;;1.33;1.10;;;3.10;99.90;;;;;;7388625;19;20346;-78
2022/01/06 00:23:42;;;;;;;1.17;1.00;;;3.10;99.90;;;;;;7387465;19;20313;-78
2022/01/06 00:26:10;;;;;;;1.70;0.90;;;3.20;99.90;;;;;;7271282;19;2004433;-79
2022/01/06 00:28:36;;;;;;;1.38;1.00;;;3.20;99.90;;;;;;7368826;19;20317;-79
2022/01/06 00:31:05;;;;;;;2.00;0.98;;;3.10;99.90;;;;;;7377293;19;20316;-79
2022/01/06 00:33:36;;;;;;;1.80;1.30;;;3.10;99.90;;;;;;7325737;19;20325;-79
2022/01/06 00:36:26;;;;;;;1.07;1.00;;;3.10;99.90;;;;;;7372229;19;20388;-78
2022/01/06 00:41:55;;;;;;;1.75;1.08;;;3.00;99.90;;;;;;7207484;19;2004437;-80
2022/01/06 00:44:51;;;;;;;2.50;1.20;;;3.10;99.90;;;;;;7216118;19;2004502;-78
2022/01/06 00:47:52;;;;;;;3.40;1.23;;;3.00;99.90;;;;;;7376059;19;20356;-79
2022/01/06 00:50:42;;;;;;;1.73;1.00;;;3.00;99.90;;;;;;7279680;19;2004418;-79
2022/01/06 00:53:21;;;;;;;1.00;0.90;;;2.90;99.90;;;;;;7382727;19;20335;-78
2022/01/06 00:56:10;;;;;;;1.10;1.00;;;2.90;99.90;;;;;;7356532;19;20297;-80
2022/01/06 00:59:06;;;;;;;0.80;0.80;;;2.90;99.90;;;;;;7405581;19;20329;-78
2022/01/06 01:05:05;;;;;;;1.45;0.98;;;2.90;99.90;;;;;;7377459;19;20328;-79
2022/01/06 01:07:43;;;;;;;0.95;0.93;;;2.90;99.90;;;;;;7269981;19;2004391;-79
2022/01/06 01:10:10;;;;;;;0.90;0.90;;;2.70;99.90;;;;;;7379001;19;20331;-78
2022/01/06 01:15:23;;;;;;;0.80;0.80;;;2.80;99.90;;;;;;7413584;19;20327;-78
2022/01/06 01:18:28;;;;;;;0.80;0.80;;;2.80;99.90;;;;;;7357875;19;20332;-79
2022/01/06 01:21:06;;;;;;;0.80;0.80;;;2.80;99.90;;;;;;7310683;19;20321;-79
2022/01/06 01:23:44;;;;;;;1.40;0.90;;;2.90;99.90;;;;;;7325123;19;20320;-79
2022/01/06 01:27:23;;;;;;;1.13;0.98;;;2.90;99.90;;;;;;7266973;19;2004383;-81
2022/01/06 01:30:29;;;;;;;3.20;1.00;;;2.90;99.90;;;;;;7283985;19;2004301;-78
2022/01/06 01:33:39;;;;;;;3.70;1.13;;;2.90;99.90;;;;;;7359314;19;20355;-78
2022/01/06 01:36:17;;;;;;;1.17;1.00;;;2.90;99.90;;;;;;7384189;19;20328;-78
2022/01/06 01:39:37;;;;;;;0.70;0.70;;;2.90;99.90;;;;;;7389267;19;20328;-78
2022/01/06 01:42:58;;;;;;;0.93;0.93;;;2.70;99.90;;;;;;7328257;19;20859;-79
2022/01/06 01:46:30;;;;;;;1.30;1.00;;;2.80;99.90;;;;;;7342177;19;20337;-78
2022/01/06 01:49:47;;;;;;;1.60;1.08;;;2.80;99.90;;;;;;7329317;19;20345;-78
2022/01/06 01:52:58;;;;;;;1.13;1.08;;;2.80;99.90;;;;;;7305961;19;2004488;-80
2022/01/06 01:55:32;;;;;;;2.10;1.00;;;2.70;99.90;;;;;;7093116;19;2004612;-78
2022/01/06 01:58:38;;;;;;;1.10;1.00;;;2.90;99.90;;;;;;7362127;19;20310;-78
2022/01/06 02:01:22;;;;;;;1.25;1.00;;;2.90;99.90;;;;;;7324633;19;20348;-78
2022/01/06 02:04:13;;;;;;;1.52;1.20;;;2.90;99.90;;;;;;7384251;19;20297;-79
2022/01/06 02:06:53;;;;;;;1.00;1.00;;;2.80;99.90;;;;;;7242630;19;2004469;-79
2022/01/06 02:10:07;;;;;;;1.20;1.10;;;2.90;99.90;;;;;;7334900;19;20401;-80
2022/01/06 02:12:41;;;;;;;1.65;1.20;;;2.80;99.90;;;;;;7228748;19;2004205;-80
2022/01/06 02:15:11;;;;;;;1.73;0.97;;;2.90;99.90;;;;;;7364903;19;21631;-78
2022/01/06 02:18:15;;;;;;;1.17;0.98;;;2.90;99.90;;;;;;7370487;19;20352;-79
2022/01/06 02:20:48;;;;;;;1.52;1.10;;;2.80;99.90;;;;;;7320946;19;20391;-79
2022/01/06 02:23:25;;;;;;;1.50;1.15;;;2.80;99.90;;;;;;7345336;19;20329;-80
2022/01/06 02:26:33;;;;;;;1.27;1.17;;;2.70;99.90;;;;;;7369219;19;20360;-80
2022/01/06 02:29:21;;;;;;;1.70;1.10;;;2.70;99.90;;;;;;7262749;19;2008141;-81
2022/01/06 02:32:01;;;;;;;1.20;1.10;;;2.70;99.90;;;;;;7366736;19;20305;-79
2022/01/06 02:34:38;;;;;;;1.27;1.13;;;2.70;99.90;;;;;;7348374;19;20343;-79
2022/01/06 02:37:37;;;;;;;2.03;1.30;;;2.70;99.90;;;;;;7402528;19;20328;-80
2022/01/06 02:40:41;;;;;;;2.17;1.20;;;2.90;99.90;;;;;;7336975;19;20339;-79
2022/01/06 02:43:43;;;;;;;2.28;1.20;;;2.80;99.90;;;;;;7355711;19;20286;-78
2022/01/06 02:46:24;;;;;;;1.90;1.20;;;2.70;99.90;;;;;;7326932;19;20334;-78
2022/01/06 02:49:30;;;;;;;1.17;1.13;;;2.60;99.90;;;;;;7338957;19;20349;-78
2022/01/06 02:52:40;;;;;;;1.08;1.08;;;2.70;99.90;;;;;;7322473;19;20316;-78
2022/01/06 02:55:21;;;;;;;2.58;1.20;;;2.50;99.90;;;;;;7249917;19;2004277;-79
2022/01/06 03:01:30;;;;;;;1.13;1.02;;;2.50;99.90;;;;;;7194568;19;2004371;-78
2022/01/06 03:04:12;;;;;;;3.78;1.50;;;2.50;99.90;;;;;;7368117;19;20324;-79
2022/01/06 03:07:01;;;;;;;1.13;1.03;;;2.30;99.90;;;;;;7244405;19;2004492;-79
2022/01/06 03:09:55;;;;;;;1.25;1.15;;;2.30;99.90;;;;;;7392697;19;20307;-80
2022/01/06 03:12:44;;;;;;;2.25;1.10;;;2.20;99.90;;;;;;7309548;19;20343;-80
2022/01/06 03:15:33;;;;;;;2.50;1.23;;;2.30;99.90;;;;;;7384499;19;20325;-78
2022/01/06 03:18:08;;;;;;;1.60;1.30;;;2.10;99.90;;;;;;7345028;19;20316;-80
2022/01/06 03:21:13;;;;;;;1.20;1.10;;;2.00;99.90;;;;;;7288146;19;2004422;-79
2022/01/06 03:24:02;;;;;;;1.98;1.25;;;2.00;99.90;;;;;;7320269;19;20329;-80
2022/01/06 03:26:51;;;;;;;1.95;1.10;;;1.90;99.90;;;;;;7333220;19;20417;-78
2022/01/06 03:30:01;;;;;;;0.95;0.95;;;1.90;99.90;;;;;;7386765;19;20325;-78
2022/01/06 03:32:48;;;;;;;0.90;0.90;;;1.80;99.90;;;;;;7240105;19;2004441;-79
2022/01/06 03:35:35;;;;;;;1.07;1.07;;;1.70;99.90;;;;;;7394125;19;20338;-80
2022/01/06 03:38:43;;;;;;;1.33;1.13;;;1.80;99.90;;;;;;7402241;19;20320;-79
2022/01/06 03:42:05;;;;;;;1.00;1.00;;;1.70;99.90;;;;;;7367177;19;20352;-80
2022/01/06 03:45:03;;;;;;;2.50;0.93;;;1.70;99.90;;;;;;7163764;19;2004503;-78
2022/01/06 03:48:10;;;;;;;1.45;1.35;;;1.70;99.90;;;;;;7300768;19;20352;-78
2022/01/06 03:51:04;;;;;;;1.00;1.00;;;1.70;99.90;;;;;;7128248;19;2004512;-80
2022/01/06 03:54:22;;;;;;;1.40;0.90;;;1.70;99.90;;;;;;7388176;19;20344;-78
2022/01/06 03:57:58;;;;;;;0.95;0.95;;;1.70;99.90;;;;;;7308817;19;20328;-85
2022/01/06 04:00:51;;;;;;;1.57;1.17;;;1.60;99.90;;;;;;7186558;19;2004418;-79
2022/01/06 04:04:02;;;;;;;1.20;1.10;;;1.70;99.90;;;;;;7267353;19;2004409;-78
2022/01/06 04:16:40;;;;;;;1.40;1.23;;;1.60;99.90;;;;;;7356454;19;20331;-78
2022/01/06 04:19:47;;;;;;;1.27;1.17;;;1.70;99.90;;;;;;7338897;19;20321;-79
2022/01/06 04:22:43;;;;;;;1.30;1.20;;;1.50;99.90;;;;;;7341769;19;20332;-79
2022/01/06 04:26:20;;;;;;;1.70;1.20;;;1.70;99.90;;;;;;7278240;19;2004353;-78
2022/01/06 04:30:29;;;;;;;4.05;1.10;;;1.80;99.90;;;;;;7163607;19;2004199;-78
2022/01/06 04:33:35;;;;;;;1.20;1.10;;;1.70;99.90;;;;;;7259048;19;2004261;-78
2022/01/06 04:36:12;;;;;;;2.08;1.25;;;1.70;99.90;;;;;;7319295;19;20376;-79
2022/01/06 04:45:40;;;;;;;0.93;0.93;;;1.60;99.90;;;;;;7309087;19;2004374;-80
2022/01/06 04:49:01;;;;;;;1.35;1.17;;;1.70;99.90;;;;;;7340344;19;20305;-78
2022/01/06 04:52:02;;;;;;;0.98;0.98;;;1.70;99.90;;;;;;7410672;19;20364;-78
2022/01/06 04:54:44;;;;;;;0.90;0.90;;;1.70;99.90;;;;;;7406612;19;20327;-78
2022/01/06 04:57:17;;;;;;;1.17;1.07;;;1.70;99.90;;;;;;7345410;19;20316;-78
2022/01/06 05:00:18;;;;;;;1.30;1.20;;;1.70;99.90;;;;;;7363547;19;20734;-82
2022/01/06 05:02:55;;;;;;;0.98;0.98;;;1.50;99.90;;;;;;7204879;19;2004365;-77
2022/01/06 05:06:45;;;;;;;0.88;0.88;;;1.50;99.90;;;;;;7344112;19;20344;-78
2022/01/06 05:10:33;;;;;;;1.40;1.10;;;1.50;99.90;;;;;;7380679;19;20361;-78
2022/01/06 05:13:12;;;;;;;1.63;1.05;;;1.50;99.90;;;;;;7199629;19;2004247;-80
2022/01/06 05:29:50;;;;;;;1.08;0.98;;;1.30;99.90;;;;;;7405620;19;20449;-78
2022/01/06 05:33:07;;;;;;;1.10;1.00;;;1.20;99.90;;;;;;7121245;19;2004535;-79
2022/01/06 05:35:41;;;;;;;1.55;1.20;;;1.20;99.90;;;;;;7290529;19;20468;-78
2022/01/06 05:41:32;;;;;;;1.27;1.17;;;1.10;99.90;;;;;;7324810;19;20356;-77
2022/01/06 05:43:59;;;;;;;2.17;1.27;;;1.10;99.90;;;;;;7394205;19;20924;-77
2022/01/06 05:46:28;;;;;;;2.05;1.20;;;1.00;99.90;;;;;;7395749;19;20320;-76
2022/01/06 05:48:55;;;;;;;1.67;1.08;;;1.00;99.90;;;;;;7390077;19;20336;-77
2022/01/06 05:51:32;;;;;;;0.90;0.90;;;1.00;99.90;;;;;;7318869;19;20340;-77
2022/01/06 05:54:04;;;;;;;1.30;1.10;;;0.90;99.90;;;;;;7350457;19;20320;-78
2022/01/06 05:56:33;;;;;;;1.08;0.98;;;0.90;99.90;;;;;;7366300;19;20930;-78
2022/01/06 05:59:34;;;;;;;1.20;1.10;;;0.80;99.90;;;;;;7399891;19;20388;-82
2022/01/06 06:02:41;;;;;;;2.58;1.20;;;0.70;99.90;;;;;;7412473;19;20342;-80
2022/01/06 06:06:24;;;;;;;1.10;1.00;;;0.50;99.90;;;;;;7358609;19;20360;-81
2022/01/06 06:10:02;;;;;;;0.90;0.90;;;0.60;99.90;;;;;;7352708;19;20347;-80
2022/01/06 06:13:13;;;;;;;0.80;0.80;;;0.50;99.90;;;;;;7282317;19;2004383;-78
2022/01/06 06:16:32;;;;;;;2.27;0.93;;;0.40;99.90;;;;;;7355401;19;20349;-85
2022/01/06 06:19:32;;;;;;;1.10;1.00;;;0.30;99.90;;;;;;7170096;19;2004437;-79
2022/01/06 06:29:55;;;;;;;1.00;1.00;;;0.20;99.90;;;;;;7286113;19;20325;-78
2022/01/06 06:32:50;;;;;;;1.20;1.10;;;0.10;99.90;;;;;;7320508;19;20306;-78
2022/01/06 06:36:04;;;;;;;0.90;0.90;;;0.10;99.90;;;;;;7345056;19;20346;-80
2022/01/06 06:39:19;;;;;;;1.00;0.93;;;-0.20;99.90;;;;;;7318823;19;20320;-80
2022/01/06 06:42:37;;;;;;;0.80;0.80;;;-0.20;99.90;;;;;;7275109;19;2004285;-81
2022/01/06 06:52:21;;;;;;;0.90;0.90;;;-0.20;99.90;;;;;;7226210;19;2004388;-78
2022/01/06 06:55:30;;;;;;;0.80;0.80;;;-0.40;99.90;;;;;;7214790;19;2004513;-80
2022/01/06 06:57:58;;;;;;;1.10;1.00;;;-0.40;99.90;;;;;;7283339;19;2004355;-79
2022/01/06 07:00:26;;;;;;;0.90;0.90;;;-0.30;99.90;;;;;;7390383;19;20376;-77
2022/01/06 07:02:54;;;;;;;0.90;0.90;;;-0.50;99.90;;;;;;7384149;19;20340;-77
2022/01/06 07:05:20;;;;;;;0.93;0.80;;;-0.50;99.90;;;;;;7393472;19;20308;-77
2022/01/06 07:07:47;;;;;;;1.10;1.00;;;-0.50;99.90;;;;;;7393324;19;20332;-77
2022/01/06 07:10:14;;;;;;;1.75;1.10;;;-0.60;99.90;;;;;;7392763;19;20324;-78
2022/01/06 07:12:44;;;;;;;1.00;1.00;;;-0.60;99.90;;;;;;7392136;19;20360;-78
2022/01/06 07:15:11;;;;;;;1.08;1.00;;;-0.60;99.90;;;;;;7393021;19;20346;-78
2022/01/06 07:17:37;;;;;;;1.05;0.95;;;-0.60;99.90;;;;;;7374500;19;20342;-79
2022/01/06 07:20:04;;;;;;;0.70;0.70;;;-0.70;99.90;;;;;;7389016;19;20338;-80
2022/01/06 07:22:30;;;;;;;1.00;0.90;;;-0.70;99.90;;;;;;7393358;19;20756;-78
2022/01/06 07:24:57;;;;;;;1.30;1.10;;;-0.70;99.90;;;;;;7391445;19;20352;-80
2022/01/06 07:27:23;;;;;;;0.98;0.98;;;-0.70;99.90;;;;;;7392089;19;20331;-83
2022/01/06 07:29:49;;;;;;;0.82;0.82;;;-0.90;99.90;;;;;;7394006;19;20862;-78
2022/01/06 07:32:15;;;;;;;1.08;1.08;;;-0.70;99.90;;;;;;7390711;19;20312;-79
2022/01/06 07:34:41;;;;;;;0.90;0.90;;;-0.60;99.90;;;;;;7387459;19;20332;-82
2022/01/06 07:37:07;;;;;;;0.82;0.82;;;-0.60;99.90;;;;;;7399286;19;20388;-81
2022/01/06 07:39:46;;;;;;;2.58;1.65;;;-0.80;99.90;;;;;;7387068;19;20328;-82
2022/01/06 07:42:26;;;;;;;2.58;1.90;;;-0.80;99.90;;;;;;7316916;19;20339;-85
2022/01/06 07:45:04;;;;;;;1.10;1.10;;;-0.70;99.90;;;;;;7273637;19;2004533;-78
2022/01/06 07:48:15;;;;;;;1.26;1.18;;;-0.80;99.90;;;;;;7231025;19;2004365;-85
2022/01/06 07:54:41;;;;;;;0.95;0.90;;;-0.80;99.90;;;;;;7410454;19;20357;-84
2022/01/06 07:57:08;;;;;;;0.95;0.95;;;-0.90;99.90;;;;;;7403869;19;20324;-80
2022/01/06 07:59:35;;;;;;;0.98;0.98;;;-0.80;99.90;;;;;;7408861;19;20442;-80
2022/01/06 08:02:05;;;;;;;2.30;1.10;;;-0.80;99.90;;;;;;7413767;19;20364;-86
2022/01/06 08:04:32;;;;;;;0.73;0.73;;;-0.60;99.90;;;;;;7417126;19;20301;-86
2022/01/06 08:07:03;;;;;;;3.85;0.90;;;-0.80;99.90;;;;;;7413535;19;20360;-81
2022/01/06 08:09:30;;;;;;;1.25;1.00;;;-0.80;99.90;;;;;;7383912;19;20333;-79
2022/01/06 08:11:57;;;;;;;1.27;1.13;;;-0.90;99.90;;;;;;7411121;19;20305;-81
2022/01/06 08:14:26;;;;;;;1.58;1.48;;;-0.80;99.90;;;;;;7415153;19;20309;-83
2022/01/06 08:16:57;;;;;;;1.35;0.73;;;-0.70;99.90;;;;;;7410000;19;20364;-83
2022/01/06 08:19:58;;;;;;;1.10;1.10;;;-0.70;99.90;;;;;;7391367;19;20329;-83
2022/01/06 08:22:54;;;;;;;1.15;1.00;;;-0.60;99.90;;;;;;7205014;19;2004435;-84
2022/01/06 08:34:12;;;;;;;1.40;1.30;;;-0.40;99.90;;;;;;7364345;19;20359;-80
2022/01/06 08:36:38;;;;;;;1.98;1.42;;;-0.40;99.90;;;;;;7398024;19;20408;-81
2022/01/06 08:39:03;;;;;;;3.83;1.40;;;-0.30;99.90;;;;;;7394830;19;20339;-81
2022/01/06 08:41:29;;;;;;;1.80;1.70;;;-0.20;99.90;;;;;;7395108;19;20315;-82
2022/01/06 08:44:52;;;;;;;1.93;1.30;;;-0.30;99.90;;;;;;7376535;19;20308;-82
2022/01/06 08:48:58;;;;;;;3.05;1.67;;;-0.20;99.90;;;;;;7382695;19;20367;-88
2022/01/06 08:52:11;;;;;;;2.20;1.48;;;-0.10;99.90;;;;;;7408707;19;20697;-82
2022/01/06 08:54:45;;;;;;;2.17;1.25;;;-0.20;99.90;;;;;;7344818;19;20368;-80
2022/01/06 09:03:46;;;;;;;2.27;1.43;;;-0.20;99.90;;;;;;7352431;19;20329;-80
2022/01/06 09:06:12;;;;;;;1.33;1.25;;;-0.20;99.90;;;;;;7391153;19;20336;-80
2022/01/06 09:08:39;;;;;;;1.33;1.23;;;-0.10;99.90;;;;;;7391660;19;20304;-83
2022/01/06 09:11:05;;;;;;;1.05;1.02;;;-0.20;99.90;;;;;;7393266;19;20320;-80
2022/01/06 09:13:31;;;;;;;1.40;1.30;;;-0.20;99.90;;;;;;7393556;19;20328;-79
2022/01/06 09:15:57;;;;;;;1.23;1.13;;;0.00;99.90;;;;;;7396208;19;20315;-80
2022/01/06 09:18:22;;;;;;;1.77;1.30;;;0.00;99.90;;;;;;7390870;19;20328;-81
2022/01/06 09:20:49;;;;;;;1.10;1.10;;;0.20;99.90;;;;;;7393780;19;20383;-81
2022/01/06 09:23:15;;;;;;;6.50;1.95;;;0.30;99.90;;;;;;7391468;19;20320;-80
2022/01/06 09:25:41;;;;;;;1.77;1.67;;;0.10;99.90;;;;;;7397826;19;20336;-81
2022/01/06 09:28:07;;;;;;;2.03;1.70;;;0.40;99.90;;;;;;7379179;19;20328;-80
2022/01/06 09:30:33;;;;;;;1.73;1.30;;;0.30;99.90;;;;;;7399710;19;20399;-79
2022/01/06 09:32:59;;;;;;;4.45;2.90;;;0.40;99.90;;;;;;7400698;19;20330;-80
2022/01/06 09:35:26;;;;;;;2.88;2.10;;;0.50;99.90;;;;;;7382212;19;20313;-78
2022/01/06 09:37:52;;;;;;;1.27;1.10;;;0.50;99.90;;;;;;7404790;19;20315;-79
2022/01/06 09:40:20;;;;;;;1.65;1.38;;;0.30;99.90;;;;;;7376903;19;21118;-82
2022/01/06 09:42:47;;;;;;;1.77;1.38;;;0.50;99.90;;;;;;7401614;19;20342;-79
2022/01/06 09:45:13;;;;;;;2.25;1.38;;;0.50;99.90;;;;;;7400448;19;20321;-81
2022/01/06 09:47:39;;;;;;;2.17;1.42;;;0.60;99.90;;;;;;7400615;19;20312;-80
2022/01/06 09:50:06;;;;;;;1.50;1.20;;;0.80;99.90;;;;;;7398237;19;20645;-80
2022/01/06 09:52:34;;;;;;;1.58;1.27;;;0.70;99.90;;;;;;7398447;19;20731;-79
2022/01/06 09:55:02;;;;;;;1.30;1.20;;;0.60;99.90;;;;;;7394697;19;20308;-80
2022/01/06 09:57:29;;;;;;;4.40;1.40;;;0.80;99.90;;;;;;7395401;19;20431;-83
2022/01/06 09:59:56;;;;;;;1.13;1.02;;;0.90;99.90;;;;;;7394337;19;20304;-80
2022/01/06 10:02:44;;;;;;;1.58;1.30;;;0.90;99.90;;;;;;7256632;19;2004450;-79
2022/01/06 10:05:37;;;;;;;3.25;1.25;;;1.00;99.90;;;;;;7330866;19;20396;-77
2022/01/06 10:11:46;;;;;;;1.95;1.33;;;1.10;99.90;;;;;;7220915;19;2004477;-78
2022/01/06 10:14:33;;;;;;;1.13;1.02;;;1.20;99.90;;;;;;7219847;19;2004415;-76
2022/01/06 10:17:51;;;;;;;1.90;1.15;;;1.40;99.90;;;;;;7193987;19;2004424;-79
2022/01/06 10:20:27;;;;;;;1.08;1.05;;;1.40;99.90;;;;;;7274597;19;2004730;-77
2022/01/06 10:23:01;;;;;;;1.20;1.20;;;1.40;99.90;;;;;;7396174;19;21111;-79
2022/01/06 10:25:48;;;;;;;1.45;1.35;;;1.50;99.90;;;;;;7378214;19;20322;-77
2022/01/06 10:28:50;;;;;;;2.05;1.15;;;1.50;99.90;;;;;;7371596;19;20322;-79
2022/01/06 10:31:28;;;;;;;1.45;1.30;;;1.60;99.90;;;;;;7241294;19;2004044;-77
2022/01/06 10:33:55;;;;;;;2.22;1.40;;;1.70;99.90;;;;;;7346583;19;20317;-77
2022/01/06 10:36:39;;;;;;;2.03;1.30;;;1.70;99.90;;;;;;7392162;19;20728;-80
2022/01/06 10:39:09;;;;;;;1.88;1.20;;;1.70;99.90;;;;;;7317815;19;20400;-78
2022/01/06 10:41:47;;;;;;;2.65;1.30;;;1.80;99.90;;;;;;7351496;19;20312;-78
2022/01/06 10:44:20;;;;;;;1.27;1.17;;;1.80;99.90;;;;;;7330372;19;20418;-78
2022/01/06 10:47:02;;;;;;;2.40;1.10;;;1.80;99.90;;;;;;7383881;19;20360;-77
2022/01/06 10:49:33;;;;;;;1.58;1.48;;;1.80;99.90;;;;;;7335810;19;20481;-77
2022/01/06 10:52:18;;;;;;;1.75;1.25;;;1.90;99.90;;;;;;7383058;19;20329;-77
2022/01/06 10:54:58;;;;;;;1.05;0.98;;;2.00;99.90;;;;;;7231194;19;2004441;-77
2022/01/06 10:57:34;;;;;;;1.60;1.00;;;2.00;99.90;;;;;;7380108;19;20353;-80
2022/01/06 11:00:19;;;;;;;1.00;0.90;;;2.10;99.90;;;;;;7372246;19;20895;-80
2022/01/06 11:06:03;;;;;;;1.45;1.00;;;2.10;99.90;;;;;;7312006;19;20379;-76
2022/01/06 11:09:32;;;;;;;2.45;1.50;;;2.10;99.90;;;;;;7211323;19;2004584;-78
2022/01/06 11:12:59;;;;;;;1.40;1.30;;;2.10;99.90;;;;;;7238009;19;2004427;-77
2022/01/06 11:15:41;;;;;;;2.13;1.23;;;2.20;99.90;;;;;;7192359;19;2004473;-77
2022/01/06 11:18:21;;;;;;;2.42;2.00;;;2.20;99.90;;;;;;7199645;19;2004534;-77
2022/01/06 11:20:51;;;;;;;1.30;1.20;;;2.30;99.90;;;;;;7286694;19;2004239;-78
2022/01/06 11:23:25;;;;;;;1.92;1.73;;;2.30;99.90;;;;;;7374045;19;20334;-79
2022/01/06 11:26:11;;;;;;;1.10;1.10;;;2.40;99.90;;;;;;7320340;19;20792;-77
2022/01/06 11:29:14;;;;;;;1.17;1.02;;;2.40;99.90;;;;;;7375299;19;20662;-77
2022/01/06 11:35:43;;;;;;;1.00;1.00;;;2.30;99.90;;;;;;7275103;19;2004459;-78
2022/01/06 11:38:59;;;;;;;1.65;1.40;;;2.60;99.90;;;;;;7351106;19;20319;-80
2022/01/06 11:42:43;;;;;;;1.67;1.15;;;2.60;99.90;;;;;;7145001;19;2004279;-78
2022/01/06 11:45:41;;;;;;;1.80;1.00;;;2.60;99.90;;;;;;7191110;19;2004280;-79
2022/01/06 11:49:15;;;;;;;1.20;1.02;;;2.80;99.90;;;;;;7142735;19;2004506;-78
2022/01/06 11:56:01;;;;;;;1.80;1.35;;;2.80;99.90;;;;;;7371614;19;21774;-79
2022/01/06 11:59:31;;;;;;;0.90;0.90;;;3.00;99.90;;;;;;7279865;19;20430;-79
2022/01/06 12:03:07;;;;;;;3.78;1.15;;;3.00;99.90;;;;;;7397670;19;20876;-79
2022/01/06 12:05:56;;;;;;;1.67;1.20;;;3.10;99.90;;;;;;7308328;19;20689;-78
2022/01/06 12:08:49;;;;;;;0.80;0.80;;;3.00;99.90;;;;;;7340280;19;20328;-78
2022/01/06 12:11:52;;;;;;;1.80;1.20;;;3.10;99.90;;;;;;7400085;19;20344;-79
2022/01/06 12:15:23;;;;;;;1.42;1.23;;;3.20;99.90;;;;;;7381684;19;20348;-78
2022/01/06 12:22:04;;;;;;;1.73;0.90;;;3.00;99.90;;;;;;7294697;19;2004275;-79
2022/01/06 12:25:25;;;;;;;2.35;1.00;;;3.10;99.90;;;;;;7379524;19;20372;-78
2022/01/06 12:29:24;;;;;;;1.20;1.10;;;3.00;99.90;;;;;;7345275;19;20428;-79
2022/01/06 12:36:03;;;;;;;1.10;1.10;;;3.00;99.90;;;;;;7377370;19;20371;-79
2022/01/06 12:42:29;;;;;;;0.82;0.82;;;3.10;99.90;;;;;;7389461;19;20369;-80
2022/01/06 12:59:37;;;;;;;0.90;0.90;;;3.20;99.90;;;;;;7374560;19;20405;-81
2022/01/06 13:02:13;;;;;;;1.48;1.13;;;3.20;99.90;;;;;;7388727;19;20861;-81
2022/01/06 13:05:19;;;;;;;2.20;1.00;;;3.30;99.90;;;;;;7357828;19;20394;-81
2022/01/06 13:08:10;;;;;;;3.92;1.20;;;3.10;99.90;;;;;;7391781;19;20341;-81
2022/01/06 13:15:30;;;;;;;1.33;0.82;;;3.00;99.90;;;;;;7398064;19;20726;-81
2022/01/06 13:29:51;;;;;;;1.10;1.00;;;3.00;99.90;;;;;;7328490;19;20371;-79
2022/01/06 13:32:29;;;;;;;0.93;0.93;;;3.20;99.90;;;;;;7390392;19;20313;-79
2022/01/06 13:35:03;;;;;;;1.42;1.33;;;3.20;99.90;;;;;;7393033;19;20867;-81
2022/01/06 13:37:37;;;;;;;2.63;1.17;;;3.20;99.90;;;;;;7393181;19;20831;-80
2022/01/06 13:40:10;;;;;;;1.92;1.20;;;3.10;99.90;;;;;;7390570;19;20396;-78
2022/01/06 13:42:40;;;;;;;2.13;1.30;;;3.10;99.90;;;;;;7392476;19;20333;-81
2022/01/06 13:47:56;;;;;;;1.50;1.40;;;3.10;99.90;;;;;;7387696;19;20859;-79
2022/01/06 13:53:26;;;;;;;1.27;1.17;;;3.00;99.90;;;;;;7287430;19;2004361;-79
2022/01/06 13:56:27;;;;;;;1.13;1.00;;;2.70;99.90;;;;;;7389564;19;20380;-79
2022/01/06 13:58:53;;;;;;;0.93;0.82;;;2.70;99.90;;;;;;7286481;19;2004458;-79
2022/01/06 14:01:23;;;;;;;1.75;1.30;;;2.80;99.90;;;;;;7389488;19;20325;-79
2022/01/06 14:03:49;;;;;;;1.40;1.10;;;2.80;99.90;;;;;;7362780;19;20325;-80
2022/01/06 14:06:37;;;;;;;1.67;0.90;;;2.80;99.90;;;;;;7389757;19;20315;-78
2022/01/06 14:09:05;;;;;;;1.27;1.07;;;2.70;99.90;;;;;;7388843;19;20305;-79
2022/01/06 14:11:31;;;;;;;0.90;0.90;;;2.70;99.90;;;;;;7393186;19;20439;-79
2022/01/06 14:13:56;;;;;;;1.08;0.75;;;2.60;99.90;;;;;;7391090;19;20428;-79
2022/01/06 14:16:22;;;;;;;0.93;0.90;;;2.60;99.90;;;;;;7392127;19;20380;-81
2022/01/06 14:18:48;;;;;;;1.47;1.00;;;2.50;99.90;;;;;;7391698;19;20686;-82
2022/01/06 14:21:14;;;;;;;1.20;0.95;;;2.50;99.90;;;;;;7391543;19;20658;-82
2022/01/06 14:23:41;;;;;;;0.90;0.90;;;2.40;99.90;;;;;;7366215;19;21133;-81
2022/01/06 14:26:08;;;;;;;1.08;1.08;;;2.30;99.90;;;;;;7392192;19;20326;-82
2022/01/06 14:28:34;;;;;;;1.00;1.00;;;2.30;99.90;;;;;;7391527;19;20408;-81
2022/01/06 14:31:06;;;;;;;1.25;1.02;;;2.30;99.90;;;;;;7392089;19;20309;-81
2022/01/06 14:33:36;;;;;;;0.95;0.95;;;2.20;99.90;;;;;;7393260;19;20972;-81
2022/01/06 14:36:03;;;;;;;1.95;1.27;;;2.10;99.90;;;;;;7381256;19;20301;-81
2022/01/06 14:38:29;;;;;;;1.80;1.30;;;2.10;99.90;;;;;;7397326;19;20324;-79
2022/01/06 14:40:58;;;;;;;1.60;1.40;;;2.00;99.90;;;;;;7393678;19;20311;-86
2022/01/06 14:43:24;;;;;;;1.30;1.30;;;2.10;99.90;;;;;;7371764;19;20338;-81
2022/01/06 14:45:50;;;;;;;1.55;1.23;;;1.90;99.90;;;;;;7383122;19;20376;-82
2022/01/06 14:48:16;;;;;;;1.40;1.30;;;1.90;99.90;;;;;;7393858;19;20341;-80
2022/01/06 14:50:46;;;;;;;1.90;1.20;;;1.80;99.90;;;;;;7370691;19;20329;-81
2022/01/06 14:53:16;;;;;;;1.40;1.30;;;1.70;99.90;;;;;;7391203;19;20696;-81
2022/01/06 14:55:43;;;;;;;2.05;1.00;;;1.80;99.90;;;;;;7372743;19;20672;-81
2022/01/06 14:58:10;;;;;;;1.60;1.50;;;1.70;99.90;;;;;;7377007;19;20402;-81
2022/01/06 15:00:36;;;;;;;1.50;1.40;;;1.60;99.90;;;;;;7389342;19;20333;-81
2022/01/06 15:03:04;;;;;;;1.83;1.50;;;1.60;99.90;;;;;;7384193;19;20325;-82
2022/01/06 15:05:31;;;;;;;7.20;5.35;;;1.60;99.90;;;;;;7368634;19;20309;-82
2022/01/06 15:07:57;;;;;;;7.57;5.10;;;1.50;99.90;;;;;;7345228;19;20321;-81
2022/01/06 15:10:23;;;;;;;10.95;5.63;;;1.50;99.90;;;;;;7369930;19;20395;-80
2022/01/06 15:12:52;;;;;;;5.17;3.70;;;1.40;99.90;;;;;;7394131;19;20722;-81
2022/01/06 15:15:18;;;;;;;1.33;1.23;;;1.40;99.90;;;;;;7388146;19;20320;-81
2022/01/06 15:17:44;;;;;;;1.40;1.30;;;1.50;99.90;;;;;;7389626;19;20313;-79
2022/01/06 15:20:10;;;;;;;1.40;1.15;;;1.30;99.90;;;;;;7391919;19;20326;-79
2022/01/06 15:22:36;;;;;;;2.88;2.55;;;1.20;99.90;;;;;;7375613;19;20320;-80
2022/01/06 15:25:02;;;;;;;2.27;2.07;;;1.30;99.90;;;;;;7391892;19;20399;-77
2022/01/06 15:27:28;;;;;;;2.35;2.05;;;1.10;99.90;;;;;;7390395;19;20364;-81
2022/01/06 15:29:54;;;;;;;1.20;1.10;;;1.00;99.90;;;;;;7387786;19;20980;-80
2022/01/06 15:32:24;;;;;;;2.40;1.17;;;1.00;99.90;;;;;;7388779;19;20607;-82
2022/01/06 15:34:49;;;;;;;1.30;1.20;;;0.90;99.90;;;;;;7388329;19;20316;-80
2022/01/06 15:37:15;;;;;;;1.50;1.40;;;0.90;99.90;;;;;;7390867;19;20357;-80
2022/01/06 15:39:41;;;;;;;2.40;2.20;;;0.70;99.90;;;;;;7391311;19;20328;-80
2022/01/06 15:42:07;;;;;;;2.93;2.60;;;0.60;99.90;;;;;;7387723;19;20390;-80
2022/01/06 15:44:32;;;;;;;6.68;5.15;;;0.60;99.90;;;;;;7372198;19;20903;-79
2022/01/06 15:46:58;;;;;;;2.60;2.00;;;0.60;99.90;;;;;;7388507;19;20313;-80
2022/01/06 15:49:26;;;;;;;3.30;2.07;;;0.60;99.90;;;;;;7386845;19;20317;-79
2022/01/06 15:51:53;;;;;;;2.63;2.08;;;0.50;99.90;;;;;;7387933;19;20324;-81
2022/01/06 15:54:19;;;;;;;2.92;2.72;;;0.50;99.90;;;;;;7391259;19;20304;-80
2022/01/06 15:56:48;;;;;;;2.00;1.80;;;0.40;99.90;;;;;;7387179;19;20341;-80
2022/01/06 15:59:18;;;;;;;1.73;1.30;;;0.30;99.90;;;;;;7364479;19;20719;-79
2022/01/06 16:05:18;;;;;;;1.38;1.17;;;0.20;99.90;;;;;;7348838;19;20331;-80
2022/01/06 16:08:14;;;;;;;1.00;0.95;;;0.20;99.90;;;;;;7282754;19;2004376;-81
2022/01/06 16:10:51;;;;;;;1.50;1.40;;;0.20;99.90;;;;;;7338702;19;21253;-79
2022/01/06 16:13:54;;;;;;;1.40;1.30;;;0.10;99.90;;;;;;7353660;19;20328;-80
2022/01/06 16:16:31;;;;;;;2.10;1.87;;;0.10;99.90;;;;;;7381399;19;20302;-77
2022/01/06 16:18:58;;;;;;;1.60;1.50;;;0.00;99.90;;;;;;7378560;19;20326;-79
2022/01/06 16:22:10;;;;;;;4.80;3.42;;;0.00;99.90;;;;;;7366031;19;20296;-81
2022/01/06 16:25:27;;;;;;;4.13;3.35;;;-0.10;99.90;;;;;;7095246;19;2004469;-80
2022/01/06 16:28:39;;;;;;;2.17;1.98;;;-0.20;99.90;;;;;;7137178;19;2004422;-80
2022/01/06 16:31:28;;;;;;;1.73;1.60;;;-0.20;99.90;;;;;;7293405;19;20320;-83
2022/01/06 16:35:19;;;;;;;2.13;1.83;;;-0.30;99.90;;;;;;7227024;19;2004313;-80
2022/01/06 16:38:53;;;;;;;2.15;1.73;;;-0.40;99.90;;;;;;7377382;19;20652;-79
2022/01/06 16:42:04;;;;;;;2.42;2.20;;;-0.40;99.90;;;;;;7228179;19;2004295;-79
2022/01/06 16:45:15;;;;;;;2.10;1.77;;;-0.40;99.90;;;;;;7076533;19;2004402;-79
2022/01/06 16:47:43;;;;;;;1.83;1.73;;;-0.50;99.90;;;;;;7277094;19;20714;-78
2022/01/06 16:51:04;;;;;;;2.17;1.98;;;-0.50;99.90;;;;;;7312741;19;20361;-79
2022/01/06 16:54:34;;;;;;;3.80;3.40;;;-0.60;99.90;;;;;;7151188;19;2004277;-79
2022/01/06 16:57:08;;;;;;;52.90;30.75;;;-0.60;99.90;;;;;;7261415;19;20363;-79